Pagrindinis puslapis
METAR-TAF:

METAR-TAF

Oro uostai :

Ernšioldsvikas, Švedija

platuma: 63-24N, ilguma: 018-58E, Aukštis: 103 m

Dabartinis oras

Ataskaita buvo paskelbta 11 minutes, ne 10:50 UTC
Vėjas 6 kt iš Šiaurės Vakarų, svyruoja nuo Pietvakarių ir Šiaurės Rytų
Temperatūra 23°C
Drėgmė 27%
Slėgis 1031 hPa
Matomumas 10 km arba daugiau

METAR: ESNO 311050Z AUTO 31006KT 230V040 9999 NCD 23/03 Q1031

Laikas: 13:01 (11:01 UTC)


TAF: trūkstamas

Orai ataskaitas ir orų prognozės (METAR, TAF).

turimą stotys yra geltonos ir raudonos taškus žemėlapyje.

Perkelti pele per norėdami pamatyti stoties vardą.

Tada spustelėkite, norėdami matyti oro stebėjimo ir prognozės.

Norėdami pakeisti žemėlapį: spustelėkite ant žalios mygtukų su juodo kryžiaus žemyn,; žalią mygtuką su brūkšneliu, jei norite nutolinti; arba žalių rodyklių gretimoms žemėlapius.


METAR-TAF: